Strona główna
METAR-TAF:

METAR-TAF

Lotnisko :

Dinwiddie County Airport

Petersburg, Wirginia, Stany Zjednoczone

Szerokość geograficzna: 37-11N, Długość geograficzna: 077-31W, wysokość: 59 m

Aktualna obserwacja pogody

Raport powstał 24 minut temu, godzina 19:55 UTC
Wiatr 4 kt od południowy wschód
Temperatura 23°C
Wilgotność 89%
Ciśnienie 1014 hPa
Widzialność: 16.1 km
Rozproszone chmury na wysokości 2700 ft
Przerywane chmury na wysokości 4100 ft
Zachmurzenie całkowite na wysokości 10000 ft
słaby deszcz

METAR: KPTB 301955Z AUTO 14004KT 10SM -RA SCT027 BKN041 OVC100 23/21 A2993 RMK AO2 P0004 T02300207

czas: 16:19 (20:19 UTC)


TAF: brakujący

Obserwacja i prognoza pogody dla ponad 4000 lotnisk (raport METAR i TAF).

Dostępne stacje oznaczono żółtymi i czerwonymi punktami na mapie.

Najedź kursorem aby zobaczyć nazwę stacji.

Kliknij aby zobaczyć obserwacje i prognozy pogody.

Aby zmienić mapę: kliknij na zielony przycisk z czarnym krzyżykiem, aby powiększyć; na zielony przycisk z myślnikiem, aby pomniejszyć; na zielone strzałki, aby przejść do map sąsiednich.


METAR-TAF: